sensor_id;sensor_type;location;lat;lon;timestamp;P1;durP1;ratioP1;P2;durP2;ratioP2
45650;SDS011;31365;48.858;8.530;2022-09-03T00:02:38;3.63;;;1.83;;
45650;SDS011;31365;48.858;8.530;2022-09-03T00:05:14;2.17;;;1.63;;
45650;SDS011;31365;48.858;8.530;2022-09-03T00:07:53;2.10;;;1.90;;
45650;SDS011;31365;48.858;8.530;2022-09-03T00:10:33;3.08;;;1.50;;
45650;SDS011;31365;48.858;8.530;2022-09-03T00:13:13;2.50;;;1.63;;
45650;SDS011;31365;48.858;8.530;2022-09-03T00:15:49;1.70;;;1.60;;
45650;SDS011;31365;48.858;8.530;2022-09-03T00:18:23;1.70;;;1.60;;
45650;SDS011;31365;48.858;8.530;2022-09-03T00:20:59;3.00;;;1.67;;
45650;SDS011;31365;48.858;8.530;2022-09-03T00:23:34;3.75;;;1.60;;
45650;SDS011;31365;48.858;8.530;2022-09-03T00:26:16;1.65;;;1.55;;
45650;SDS011;31365;48.858;8.530;2022-09-03T00:28:55;2.00;;;1.80;;
45650;SDS011;31365;48.858;8.530;2022-09-03T00:31:31;1.85;;;1.75;;
45650;SDS011;31365;48.858;8.530;2022-09-03T00:34:05;2.70;;;1.80;;
45650;SDS011;31365;48.858;8.530;2022-09-03T00:36:42;2.75;;;1.60;;
45650;SDS011;31365;48.858;8.530;2022-09-03T00:39:13;2.90;;;2.08;;
45650;SDS011;31365;48.858;8.530;2022-09-03T00:50:14;1.90;;;1.52;;
45650;SDS011;31365;48.858;8.530;2022-09-03T00:56:01;3.38;;;1.60;;
45650;SDS011;31365;48.858;8.530;2022-09-03T00:58:43;1.92;;;1.70;;
45650;SDS011;31365;48.858;8.530;2022-09-03T01:01:33;2.33;;;2.05;;
45650;SDS011;31365;48.858;8.530;2022-09-03T01:04:21;2.00;;;1.48;;
45650;SDS011;31365;48.858;8.530;2022-09-03T01:07:00;1.63;;;1.52;;
45650;SDS011;31365;48.858;8.530;2022-09-03T01:09:43;2.55;;;2.00;;
45650;SDS011;31365;48.858;8.530;2022-09-03T01:12:24;3.20;;;1.65;;
45650;SDS011;31365;48.858;8.530;2022-09-03T01:15:08;2.15;;;2.00;;
45650;SDS011;31365;48.858;8.530;2022-09-03T01:17:45;3.90;;;1.63;;
45650;SDS011;31365;48.858;8.530;2022-09-03T01:20:33;1.88;;;1.73;;
45650;SDS011;31365;48.858;8.530;2022-09-03T01:23:39;1.65;;;1.55;;
45650;SDS011;31365;48.858;8.530;2022-09-03T01:26:44;1.83;;;1.45;;
45650;SDS011;31365;48.858;8.530;2022-09-03T01:29:33;3.22;;;1.80;;
45650;SDS011;31365;48.858;8.530;2022-09-03T01:32:18;2.28;;;1.90;;
45650;SDS011;31365;48.858;8.530;2022-09-03T01:35:00;2.53;;;1.88;;
45650;SDS011;31365;48.858;8.530;2022-09-03T01:37:38;2.17;;;1.77;;
45650;SDS011;31365;48.858;8.530;2022-09-03T01:40:22;2.08;;;1.80;;
45650;SDS011;31365;48.858;8.530;2022-09-03T01:43:06;3.47;;;1.90;;
45650;SDS011;31365;48.858;8.530;2022-09-03T01:46:04;3.45;;;1.85;;
45650;SDS011;31365;48.858;8.530;2022-09-03T01:48:43;2.10;;;1.50;;
45650;SDS011;31365;48.858;8.530;2022-09-03T01:51:20;3.03;;;2.05;;
45650;SDS011;31365;48.858;8.530;2022-09-03T01:53:59;4.45;;;1.88;;
45650;SDS011;31365;48.858;8.530;2022-09-03T01:57:04;2.80;;;1.92;;
45650;SDS011;31365;48.858;8.530;2022-09-03T02:00:04;3.17;;;2.10;;
45650;SDS011;31365;48.858;8.530;2022-09-03T02:02:40;2.85;;;1.92;;
45650;SDS011;31365;48.858;8.530;2022-09-03T02:05:14;1.92;;;1.83;;
45650;SDS011;31365;48.858;8.530;2022-09-03T02:07:49;1.92;;;1.70;;
45650;SDS011;31365;48.858;8.530;2022-09-03T02:10:25;2.30;;;1.70;;
45650;SDS011;31365;48.858;8.530;2022-09-03T02:12:58;2.38;;;2.00;;
45650;SDS011;31365;48.858;8.530;2022-09-03T02:15:34;2.25;;;2.03;;
45650;SDS011;31365;48.858;8.530;2022-09-03T02:18:09;2.30;;;2.10;;
45650;SDS011;31365;48.858;8.530;2022-09-03T02:20:43;2.03;;;1.92;;
45650;SDS011;31365;48.858;8.530;2022-09-03T02:23:14;4.03;;;2.00;;
45650;SDS011;31365;48.858;8.530;2022-09-03T02:25:50;2.38;;;2.17;;
45650;SDS011;31365;48.858;8.530;2022-09-03T02:28:24;2.05;;;1.85;;
45650;SDS011;31365;48.858;8.530;2022-09-03T02:30:54;1.95;;;1.85;;
45650;SDS011;31365;48.858;8.530;2022-09-03T02:33:25;2.35;;;2.08;;
45650;SDS011;31365;48.858;8.530;2022-09-03T02:35:54;2.08;;;1.90;;
45650;SDS011;31365;48.858;8.530;2022-09-03T02:38:24;2.03;;;1.77;;
45650;SDS011;31365;48.858;8.530;2022-09-03T02:40:54;2.63;;;2.05;;
45650;SDS011;31365;48.858;8.530;2022-09-03T02:43:23;3.15;;;1.80;;
45650;SDS011;31365;48.858;8.530;2022-09-03T02:46:00;2.30;;;1.90;;
45650;SDS011;31365;48.858;8.530;2022-09-03T02:48:33;1.98;;;1.80;;
45650;SDS011;31365;48.858;8.530;2022-09-03T02:51:02;2.38;;;1.92;;
45650;SDS011;31365;48.858;8.530;2022-09-03T02:53:39;1.95;;;1.83;;
45650;SDS011;31365;48.858;8.530;2022-09-03T02:56:09;3.03;;;1.73;;
45650;SDS011;31365;48.858;8.530;2022-09-03T02:58:38;4.05;;;1.70;;
45650;SDS011;31365;48.858;8.530;2022-09-03T03:01:06;2.20;;;1.98;;
45650;SDS011;31365;48.858;8.530;2022-09-03T03:03:39;2.50;;;1.95;;
45650;SDS011;31365;48.858;8.530;2022-09-03T03:06:07;3.45;;;2.10;;
45650;SDS011;31365;48.858;8.530;2022-09-03T03:08:37;3.00;;;1.95;;
45650;SDS011;31365;48.858;8.530;2022-09-03T03:11:06;2.20;;;2.00;;
45650;SDS011;31365;48.858;8.530;2022-09-03T03:13:34;2.10;;;1.90;;
45650;SDS011;31365;48.858;8.530;2022-09-03T03:16:03;2.30;;;1.83;;
45650;SDS011;31365;48.858;8.530;2022-09-03T03:18:33;1.77;;;1.67;;
45650;SDS011;31365;48.858;8.530;2022-09-03T03:21:04;3.50;;;2.00;;
45650;SDS011;31365;48.858;8.530;2022-09-03T03:23:34;2.17;;;1.98;;
45650;SDS011;31365;48.858;8.530;2022-09-03T03:26:06;1.80;;;1.70;;
45650;SDS011;31365;48.858;8.530;2022-09-03T03:28:36;2.05;;;1.95;;
45650;SDS011;31365;48.858;8.530;2022-09-03T03:31:06;5.97;;;1.92;;
45650;SDS011;31365;48.858;8.530;2022-09-03T03:33:36;2.90;;;2.22;;
45650;SDS011;31365;48.858;8.530;2022-09-03T03:36:09;2.13;;;1.75;;
45650;SDS011;31365;48.858;8.530;2022-09-03T03:38:40;2.70;;;2.50;;
45650;SDS011;31365;48.858;8.530;2022-09-03T03:41:09;2.63;;;1.80;;
45650;SDS011;31365;48.858;8.530;2022-09-03T03:43:41;2.20;;;2.00;;
45650;SDS011;31365;48.858;8.530;2022-09-03T03:46:10;2.20;;;2.00;;
45650;SDS011;31365;48.858;8.530;2022-09-03T03:48:39;2.05;;;1.85;;
45650;SDS011;31365;48.858;8.530;2022-09-03T03:51:09;2.13;;;2.00;;
45650;SDS011;31365;48.858;8.530;2022-09-03T03:53:37;2.92;;;2.00;;
45650;SDS011;31365;48.858;8.530;2022-09-03T03:56:07;2.75;;;2.13;;
45650;SDS011;31365;48.858;8.530;2022-09-03T03:58:39;2.25;;;2.05;;
45650;SDS011;31365;48.858;8.530;2022-09-03T04:01:10;2.20;;;2.00;;
45650;SDS011;31365;48.858;8.530;2022-09-03T04:03:42;4.00;;;2.20;;
45650;SDS011;31365;48.858;8.530;2022-09-03T04:06:13;2.03;;;1.92;;
45650;SDS011;31365;48.858;8.530;2022-09-03T04:08:44;2.05;;;1.95;;
45650;SDS011;31365;48.858;8.530;2022-09-03T04:11:15;2.35;;;2.22;;
45650;SDS011;31365;48.858;8.530;2022-09-03T04:13:46;4.88;;;2.00;;
45650;SDS011;31365;48.858;8.530;2022-09-03T04:16:17;1.90;;;1.80;;
45650;SDS011;31365;48.858;8.530;2022-09-03T04:18:47;3.28;;;2.00;;
45650;SDS011;31365;48.858;8.530;2022-09-03T04:21:18;2.20;;;2.00;;
45650;SDS011;31365;48.858;8.530;2022-09-03T04:23:49;3.30;;;2.15;;
45650;SDS011;31365;48.858;8.530;2022-09-03T04:26:20;1.95;;;1.80;;
45650;SDS011;31365;48.858;8.530;2022-09-03T04:28:50;2.47;;;2.28;;
45650;SDS011;31365;48.858;8.530;2022-09-03T04:31:19;4.28;;;2.40;;
45650;SDS011;31365;48.858;8.530;2022-09-03T04:33:48;2.30;;;2.10;;
45650;SDS011;31365;48.858;8.530;2022-09-03T04:36:19;2.83;;;2.50;;
45650;SDS011;31365;48.858;8.530;2022-09-03T04:38:50;2.70;;;2.50;;
45650;SDS011;31365;48.858;8.530;2022-09-03T04:41:22;2.53;;;2.30;;
45650;SDS011;31365;48.858;8.530;2022-09-03T04:43:52;2.40;;;2.20;;
45650;SDS011;31365;48.858;8.530;2022-09-03T04:46:23;3.47;;;2.47;;
45650;SDS011;31365;48.858;8.530;2022-09-03T04:48:59;2.17;;;2.08;;
45650;SDS011;31365;48.858;8.530;2022-09-03T04:51:30;3.25;;;2.83;;
45650;SDS011;31365;48.858;8.530;2022-09-03T04:53:59;4.15;;;3.03;;
45650;SDS011;31365;48.858;8.530;2022-09-03T04:56:29;4.75;;;2.70;;
45650;SDS011;31365;48.858;8.530;2022-09-03T04:59:00;4.07;;;2.35;;
45650;SDS011;31365;48.858;8.530;2022-09-03T05:01:34;2.55;;;2.33;;
45650;SDS011;31365;48.858;8.530;2022-09-03T05:04:06;6.30;;;2.60;;
45650;SDS011;31365;48.858;8.530;2022-09-03T05:06:36;3.15;;;2.92;;
45650;SDS011;31365;48.858;8.530;2022-09-03T05:09:05;5.53;;;3.13;;
45650;SDS011;31365;48.858;8.530;2022-09-03T05:11:33;3.63;;;2.50;;
45650;SDS011;31365;48.858;8.530;2022-09-03T05:14:03;5.40;;;3.10;;
45650;SDS011;31365;48.858;8.530;2022-09-03T05:16:32;3.03;;;2.70;;
45650;SDS011;31365;48.858;8.530;2022-09-03T05:19:01;4.43;;;2.92;;
45650;SDS011;31365;48.858;8.530;2022-09-03T05:21:31;3.55;;;2.80;;
45650;SDS011;31365;48.858;8.530;2022-09-03T05:24:03;4.57;;;3.25;;
45650;SDS011;31365;48.858;8.530;2022-09-03T05:26:32;4.20;;;3.22;;
45650;SDS011;31365;48.858;8.530;2022-09-03T05:29:05;4.20;;;2.80;;
45650;SDS011;31365;48.858;8.530;2022-09-03T05:31:35;3.25;;;2.95;;
45650;SDS011;31365;48.858;8.530;2022-09-03T05:34:06;3.03;;;2.72;;
45650;SDS011;31365;48.858;8.530;2022-09-03T05:36:41;2.65;;;2.45;;
45650;SDS011;31365;48.858;8.530;2022-09-03T05:39:13;3.20;;;3.00;;
45650;SDS011;31365;48.858;8.530;2022-09-03T05:41:42;3.00;;;2.80;;
45650;SDS011;31365;48.858;8.530;2022-09-03T05:44:10;3.22;;;2.88;;
45650;SDS011;31365;48.858;8.530;2022-09-03T05:46:40;4.35;;;3.10;;
45650;SDS011;31365;48.858;8.530;2022-09-03T05:49:08;4.70;;;2.88;;
45650;SDS011;31365;48.858;8.530;2022-09-03T05:51:38;3.35;;;2.50;;
45650;SDS011;31365;48.858;8.530;2022-09-03T05:54:06;4.88;;;3.40;;
45650;SDS011;31365;48.858;8.530;2022-09-03T05:56:37;3.60;;;3.30;;
45650;SDS011;31365;48.858;8.530;2022-09-03T05:59:08;3.80;;;3.10;;
45650;SDS011;31365;48.858;8.530;2022-09-03T06:01:40;2.90;;;2.70;;
45650;SDS011;31365;48.858;8.530;2022-09-03T06:04:18;4.10;;;2.83;;
45650;SDS011;31365;48.858;8.530;2022-09-03T06:06:47;3.92;;;3.13;;
45650;SDS011;31365;48.858;8.530;2022-09-03T06:09:16;2.92;;;2.72;;
45650;SDS011;31365;48.858;8.530;2022-09-03T06:11:50;2.92;;;2.72;;
45650;SDS011;31365;48.858;8.530;2022-09-03T06:14:22;3.30;;;3.05;;
45650;SDS011;31365;48.858;8.530;2022-09-03T06:16:50;4.53;;;2.53;;
45650;SDS011;31365;48.858;8.530;2022-09-03T06:19:19;3.80;;;3.35;;
45650;SDS011;31365;48.858;8.530;2022-09-03T06:21:48;4.22;;;3.13;;
45650;SDS011;31365;48.858;8.530;2022-09-03T06:24:17;3.83;;;2.70;;
45650;SDS011;31365;48.858;8.530;2022-09-03T06:26:54;3.58;;;2.80;;
45650;SDS011;31365;48.858;8.530;2022-09-03T06:29:23;2.97;;;2.78;;
45650;SDS011;31365;48.858;8.530;2022-09-03T06:31:53;3.60;;;3.17;;
45650;SDS011;31365;48.858;8.530;2022-09-03T06:34:22;3.85;;;3.17;;
45650;SDS011;31365;48.858;8.530;2022-09-03T06:36:52;4.50;;;3.03;;
45650;SDS011;31365;48.858;8.530;2022-09-03T06:39:20;3.00;;;2.80;;
45650;SDS011;31365;48.858;8.530;2022-09-03T06:41:50;3.80;;;3.50;;
45650;SDS011;31365;48.858;8.530;2022-09-03T06:44:27;3.90;;;3.55;;
45650;SDS011;31365;48.858;8.530;2022-09-03T06:46:55;3.22;;;2.90;;
45650;SDS011;31365;48.858;8.530;2022-09-03T06:49:27;3.33;;;3.13;;
45650;SDS011;31365;48.858;8.530;2022-09-03T06:51:56;5.40;;;4.82;;
45650;SDS011;31365;48.858;8.530;2022-09-03T06:54:24;4.15;;;3.50;;
45650;SDS011;31365;48.858;8.530;2022-09-03T06:56:53;3.28;;;2.97;;
45650;SDS011;31365;48.858;8.530;2022-09-03T06:59:21;4.70;;;3.30;;
45650;SDS011;31365;48.858;8.530;2022-09-03T07:01:51;4.32;;;3.10;;
45650;SDS011;31365;48.858;8.530;2022-09-03T07:04:20;3.38;;;3.17;;
45650;SDS011;31365;48.858;8.530;2022-09-03T07:06:54;4.88;;;3.35;;
45650;SDS011;31365;48.858;8.530;2022-09-03T07:09:23;5.13;;;3.53;;
45650;SDS011;31365;48.858;8.530;2022-09-03T07:11:52;3.63;;;3.33;;
45650;SDS011;31365;48.858;8.530;2022-09-03T07:14:21;3.53;;;3.22;;
45650;SDS011;31365;48.858;8.530;2022-09-03T07:16:54;4.05;;;3.25;;
45650;SDS011;31365;48.858;8.530;2022-09-03T07:19:22;3.95;;;3.42;;
45650;SDS011;31365;48.858;8.530;2022-09-03T07:21:50;3.72;;;3.17;;
45650;SDS011;31365;48.858;8.530;2022-09-03T07:24:19;3.65;;;3.17;;
45650;SDS011;31365;48.858;8.530;2022-09-03T07:26:48;3.28;;;2.78;;
45650;SDS011;31365;48.858;8.530;2022-09-03T07:29:16;3.35;;;3.13;;
45650;SDS011;31365;48.858;8.530;2022-09-03T07:31:47;2.80;;;2.50;;
45650;SDS011;31365;48.858;8.530;2022-09-03T07:34:20;3.95;;;3.63;;
45650;SDS011;31365;48.858;8.530;2022-09-03T07:36:52;4.53;;;3.75;;
45650;SDS011;31365;48.858;8.530;2022-09-03T07:39:21;5.50;;;3.47;;
45650;SDS011;31365;48.858;8.530;2022-09-03T07:41:50;4.38;;;3.25;;
45650;SDS011;31365;48.858;8.530;2022-09-03T07:44:18;3.67;;;2.83;;
45650;SDS011;31365;48.858;8.530;2022-09-03T07:46:47;4.53;;;3.15;;
45650;SDS011;31365;48.858;8.530;2022-09-03T07:49:18;6.50;;;3.03;;
45650;SDS011;31365;48.858;8.530;2022-09-03T07:51:48;5.50;;;3.15;;
45650;SDS011;31365;48.858;8.530;2022-09-03T07:54:20;3.25;;;2.92;;
45650;SDS011;31365;48.858;8.530;2022-09-03T07:56:49;4.10;;;3.70;;
45650;SDS011;31365;48.858;8.530;2022-09-03T07:59:17;5.70;;;4.38;;
45650;SDS011;31365;48.858;8.530;2022-09-03T08:01:48;3.50;;;3.20;;
45650;SDS011;31365;48.858;8.530;2022-09-03T08:04:17;3.90;;;3.17;;
45650;SDS011;31365;48.858;8.530;2022-09-03T08:06:48;3.28;;;3.08;;
45650;SDS011;31365;48.858;8.530;2022-09-03T08:09:21;3.30;;;3.03;;
45650;SDS011;31365;48.858;8.530;2022-09-03T08:11:50;3.65;;;2.60;;
45650;SDS011;31365;48.858;8.530;2022-09-03T08:14:18;3.65;;;2.90;;
45650;SDS011;31365;48.858;8.530;2022-09-03T08:16:47;3.70;;;3.40;;
45650;SDS011;31365;48.858;8.530;2022-09-03T08:19:17;4.18;;;3.88;;
45650;SDS011;31365;48.858;8.530;2022-09-03T08:21:47;3.97;;;3.40;;
45650;SDS011;31365;48.858;8.530;2022-09-03T08:24:16;5.25;;;4.00;;
45650;SDS011;31365;48.858;8.530;2022-09-03T08:26:47;3.60;;;3.03;;
45650;SDS011;31365;48.858;8.530;2022-09-03T08:29:18;3.38;;;3.00;;
45650;SDS011;31365;48.858;8.530;2022-09-03T08:31:49;4.40;;;3.13;;
45650;SDS011;31365;48.858;8.530;2022-09-03T08:34:17;5.13;;;3.17;;
45650;SDS011;31365;48.858;8.530;2022-09-03T08:36:48;3.47;;;2.70;;
45650;SDS011;31365;48.858;8.530;2022-09-03T08:39:18;3.67;;;3.05;;
45650;SDS011;31365;48.858;8.530;2022-09-03T08:41:55;4.97;;;3.40;;
45650;SDS011;31365;48.858;8.530;2022-09-03T08:44:49;3.90;;;2.83;;
45650;SDS011;31365;48.858;8.530;2022-09-03T08:47:25;3.90;;;3.50;;
45650;SDS011;31365;48.858;8.530;2022-09-03T08:50:02;3.35;;;3.05;;
45650;SDS011;31365;48.858;8.530;2022-09-03T08:52:41;3.45;;;3.15;;
45650;SDS011;31365;48.858;8.530;2022-09-03T08:55:17;3.40;;;3.10;;
45650;SDS011;31365;48.858;8.530;2022-09-03T08:57:54;5.00;;;4.32;;
45650;SDS011;31365;48.858;8.530;2022-09-03T09:00:34;3.47;;;3.20;;
45650;SDS011;31365;48.858;8.530;2022-09-03T09:03:22;5.38;;;3.95;;
45650;SDS011;31365;48.858;8.530;2022-09-03T09:06:11;82.28;;;14.15;;
45650;SDS011;31365;48.858;8.530;2022-09-03T09:08:55;5.65;;;3.88;;
45650;SDS011;31365;48.858;8.530;2022-09-03T09:11:37;5.18;;;3.80;;
45650;SDS011;31365;48.858;8.530;2022-09-03T09:14:18;7.03;;;3.83;;
45650;SDS011;31365;48.858;8.530;2022-09-03T09:16:55;3.95;;;3.53;;
45650;SDS011;31365;48.858;8.530;2022-09-03T09:19:44;5.57;;;3.88;;
45650;SDS011;31365;48.858;8.530;2022-09-03T09:22:25;4.25;;;3.95;;
45650;SDS011;31365;48.858;8.530;2022-09-03T09:25:05;3.83;;;3.42;;
45650;SDS011;31365;48.858;8.530;2022-09-03T09:27:40;3.85;;;3.45;;
45650;SDS011;31365;48.858;8.530;2022-09-03T09:30:18;4.03;;;3.10;;
45650;SDS011;31365;48.858;8.530;2022-09-03T09:32:46;5.35;;;3.30;;
45650;SDS011;31365;48.858;8.530;2022-09-03T09:35:15;4.05;;;3.53;;
45650;SDS011;31365;48.858;8.530;2022-09-03T09:37:46;3.67;;;3.28;;
45650;SDS011;31365;48.858;8.530;2022-09-03T09:40:29;3.53;;;3.22;;
45650;SDS011;31365;48.858;8.530;2022-09-03T09:43:03;3.40;;;3.10;;
45650;SDS011;31365;48.858;8.530;2022-09-03T09:45:33;3.85;;;2.88;;
45650;SDS011;31365;48.858;8.530;2022-09-03T09:48:05;3.17;;;2.97;;
45650;SDS011;31365;48.858;8.530;2022-09-03T09:50:42;3.75;;;3.38;;
45650;SDS011;31365;48.858;8.530;2022-09-03T09:53:12;3.22;;;2.97;;
45650;SDS011;31365;48.858;8.530;2022-09-03T09:55:48;2.90;;;2.70;;
45650;SDS011;31365;48.858;8.530;2022-09-03T09:58:19;7.65;;;2.90;;
45650;SDS011;31365;48.858;8.530;2022-09-03T10:00:53;2.50;;;2.38;;
45650;SDS011;31365;48.858;8.530;2022-09-03T10:03:32;2.75;;;2.55;;
45650;SDS011;31365;48.858;8.530;2022-09-03T10:06:02;3.22;;;2.85;;
45650;SDS011;31365;48.858;8.530;2022-09-03T10:08:52;2.60;;;2.40;;
45650;SDS011;31365;48.858;8.530;2022-09-03T10:11:34;5.15;;;2.20;;
45650;SDS011;31365;48.858;8.530;2022-09-03T10:14:08;2.35;;;2.15;;
45650;SDS011;31365;48.858;8.530;2022-09-03T10:16:48;3.33;;;2.20;;
45650;SDS011;31365;48.858;8.530;2022-09-03T10:19:28;1.80;;;1.70;;
45650;SDS011;31365;48.858;8.530;2022-09-03T10:22:30;2.20;;;2.08;;
45650;SDS011;31365;48.858;8.530;2022-09-03T10:25:24;2.88;;;1.90;;
45650;SDS011;31365;48.858;8.530;2022-09-03T10:28:02;4.05;;;2.15;;
45650;SDS011;31365;48.858;8.530;2022-09-03T10:30:31;2.40;;;2.20;;
45650;SDS011;31365;48.858;8.530;2022-09-03T10:33:27;2.58;;;2.38;;
45650;SDS011;31365;48.858;8.530;2022-09-03T10:36:07;3.70;;;2.53;;
45650;SDS011;31365;48.858;8.530;2022-09-03T10:38:47;3.10;;;2.50;;
45650;SDS011;31365;48.858;8.530;2022-09-03T10:41:31;2.60;;;2.40;;
45650;SDS011;31365;48.858;8.530;2022-09-03T10:44:26;2.83;;;2.47;;
45650;SDS011;31365;48.858;8.530;2022-09-03T10:47:21;2.80;;;2.60;;
45650;SDS011;31365;48.858;8.530;2022-09-03T10:50:09;2.70;;;2.50;;
45650;SDS011;31365;48.858;8.530;2022-09-03T10:52:50;2.80;;;2.60;;
45650;SDS011;31365;48.858;8.530;2022-09-03T10:55:39;3.03;;;2.80;;
45650;SDS011;31365;48.858;8.530;2022-09-03T10:58:26;3.90;;;2.67;;
45650;SDS011;31365;48.858;8.530;2022-09-03T11:01:31;2.63;;;2.42;;
45650;SDS011;31365;48.858;8.530;2022-09-03T11:04:18;1.92;;;1.83;;
45650;SDS011;31365;48.858;8.530;2022-09-03T11:07:02;1.88;;;1.77;;
45650;SDS011;31365;48.858;8.530;2022-09-03T11:09:36;2.55;;;2.35;;
45650;SDS011;31365;48.858;8.530;2022-09-03T11:12:11;2.67;;;2.45;;
45650;SDS011;31365;48.858;8.530;2022-09-03T11:14:52;3.85;;;1.85;;
45650;SDS011;31365;48.858;8.530;2022-09-03T11:17:33;2.00;;;1.50;;
45650;SDS011;31365;48.858;8.530;2022-09-03T11:20:10;1.67;;;1.58;;
45650;SDS011;31365;48.858;8.530;2022-09-03T11:22:46;1.95;;;1.75;;
45650;SDS011;31365;48.858;8.530;2022-09-03T11:25:19;1.88;;;1.45;;
45650;SDS011;31365;48.858;8.530;2022-09-03T11:27:55;1.48;;;1.30;;
45650;SDS011;31365;48.858;8.530;2022-09-03T11:30:48;1.80;;;1.70;;
45650;SDS011;31365;48.858;8.530;2022-09-03T11:33:42;1.92;;;1.65;;
45650;SDS011;31365;48.858;8.530;2022-09-03T11:36:22;1.92;;;1.63;;
45650;SDS011;31365;48.858;8.530;2022-09-03T11:38:56;2.15;;;1.95;;
45650;SDS011;31365;48.858;8.530;2022-09-03T11:41:26;1.63;;;1.52;;
45650;SDS011;31365;48.858;8.530;2022-09-03T11:44:10;2.10;;;1.70;;
45650;SDS011;31365;48.858;8.530;2022-09-03T11:46:54;2.17;;;1.80;;
45650;SDS011;31365;48.858;8.530;2022-09-03T11:49:28;2.50;;;1.75;;
45650;SDS011;31365;48.858;8.530;2022-09-03T11:51:59;3.47;;;2.03;;
45650;SDS011;31365;48.858;8.530;2022-09-03T11:54:41;1.58;;;1.48;;
45650;SDS011;31365;48.858;8.530;2022-09-03T11:57:12;2.40;;;1.58;;
45650;SDS011;31365;48.858;8.530;2022-09-03T12:00:05;2.50;;;1.80;;
45650;SDS011;31365;48.858;8.530;2022-09-03T12:02:41;1.67;;;1.58;;
45650;SDS011;31365;48.858;8.530;2022-09-03T12:05:18;2.42;;;1.80;;
45650;SDS011;31365;48.858;8.530;2022-09-03T12:08:14;1.40;;;1.30;;
45650;SDS011;31365;48.858;8.530;2022-09-03T12:11:37;1.73;;;1.35;;
45650;SDS011;31365;48.858;8.530;2022-09-03T12:14:21;2.15;;;1.92;;
45650;SDS011;31365;48.858;8.530;2022-09-03T12:17:04;2.42;;;1.27;;
45650;SDS011;31365;48.858;8.530;2022-09-03T12:19:54;2.05;;;1.50;;
45650;SDS011;31365;48.858;8.530;2022-09-03T12:22:27;2.08;;;1.52;;
45650;SDS011;31365;48.858;8.530;2022-09-03T12:25:06;2.00;;;1.50;;
45650;SDS011;31365;48.858;8.530;2022-09-03T12:27:37;1.60;;;1.33;;
45650;SDS011;31365;48.858;8.530;2022-09-03T12:30:13;4.15;;;1.50;;
45650;SDS011;31365;48.858;8.530;2022-09-03T12:32:45;1.77;;;1.67;;
45650;SDS011;31365;48.858;8.530;2022-09-03T12:35:17;1.35;;;1.27;;
45650;SDS011;31365;48.858;8.530;2022-09-03T12:38:11;1.58;;;1.48;;
45650;SDS011;31365;48.858;8.530;2022-09-03T12:40:44;2.13;;;2.03;;
45650;SDS011;31365;48.858;8.530;2022-09-03T12:43:32;4.38;;;1.95;;
45650;SDS011;31365;48.858;8.530;2022-09-03T12:46:04;2.17;;;1.63;;
45650;SDS011;31365;48.858;8.530;2022-09-03T12:48:45;1.70;;;1.60;;
45650;SDS011;31365;48.858;8.530;2022-09-03T12:51:41;3.38;;;2.00;;
45650;SDS011;31365;48.858;8.530;2022-09-03T12:54:18;2.05;;;1.85;;
45650;SDS011;31365;48.858;8.530;2022-09-03T12:56:49;1.92;;;1.73;;
45650;SDS011;31365;48.858;8.530;2022-09-03T12:59:24;1.83;;;1.73;;
45650;SDS011;31365;48.858;8.530;2022-09-03T13:02:00;2.10;;;2.00;;
45650;SDS011;31365;48.858;8.530;2022-09-03T13:04:39;2.70;;;1.80;;
45650;SDS011;31365;48.858;8.530;2022-09-03T13:07:10;2.75;;;2.22;;
45650;SDS011;31365;48.858;8.530;2022-09-03T13:09:50;2.33;;;2.00;;
45650;SDS011;31365;48.858;8.530;2022-09-03T13:12:30;2.63;;;2.40;;
45650;SDS011;31365;48.858;8.530;2022-09-03T13:15:10;3.63;;;2.95;;
45650;SDS011;31365;48.858;8.530;2022-09-03T13:17:50;2.50;;;2.30;;
45650;SDS011;31365;48.858;8.530;2022-09-03T13:20:40;2.45;;;2.30;;
45650;SDS011;31365;48.858;8.530;2022-09-03T13:23:30;2.72;;;2.42;;
45650;SDS011;31365;48.858;8.530;2022-09-03T13:26:26;3.78;;;2.15;;
45650;SDS011;31365;48.858;8.530;2022-09-03T13:29:19;2.08;;;1.98;;
45650;SDS011;31365;48.858;8.530;2022-09-03T13:32:10;2.40;;;2.20;;
45650;SDS011;31365;48.858;8.530;2022-09-03T13:34:56;2.08;;;1.90;;
45650;SDS011;31365;48.858;8.530;2022-09-03T13:37:36;2.78;;;2.03;;
45650;SDS011;31365;48.858;8.530;2022-09-03T13:40:17;2.53;;;1.95;;
45650;SDS011;31365;48.858;8.530;2022-09-03T13:42:57;2.28;;;1.60;;
45650;SDS011;31365;48.858;8.530;2022-09-03T13:45:36;1.30;;;1.20;;
45650;SDS011;31365;48.858;8.530;2022-09-03T13:48:09;1.85;;;1.35;;
45650;SDS011;31365;48.858;8.530;2022-09-03T13:51:06;3.33;;;1.10;;
45650;SDS011;31365;48.858;8.530;2022-09-03T13:53:48;1.02;;;0.98;;
45650;SDS011;31365;48.858;8.530;2022-09-03T13:56:35;1.60;;;1.02;;
45650;SDS011;31365;48.858;8.530;2022-09-03T13:59:26;1.63;;;1.10;;
45650;SDS011;31365;48.858;8.530;2022-09-03T14:02:07;1.27;;;1.15;;
45650;SDS011;31365;48.858;8.530;2022-09-03T14:04:53;2.60;;;1.50;;
45650;SDS011;31365;48.858;8.530;2022-09-03T14:07:40;1.15;;;1.02;;
45650;SDS011;31365;48.858;8.530;2022-09-03T14:10:20;1.05;;;0.95;;
45650;SDS011;31365;48.858;8.530;2022-09-03T14:12:59;1.45;;;0.90;;
45650;SDS011;31365;48.858;8.530;2022-09-03T14:15:48;0.77;;;0.77;;
45650;SDS011;31365;48.858;8.530;2022-09-03T14:18:30;2.22;;;1.27;;
45650;SDS011;31365;48.858;8.530;2022-09-03T14:21:10;0.88;;;0.88;;
45650;SDS011;31365;48.858;8.530;2022-09-03T14:23:46;2.35;;;1.00;;
45650;SDS011;31365;48.858;8.530;2022-09-03T14:26:28;1.00;;;1.00;;
45650;SDS011;31365;48.858;8.530;2022-09-03T14:29:13;1.02;;;1.00;;
45650;SDS011;31365;48.858;8.530;2022-09-03T14:31:52;0.80;;;0.70;;
45650;SDS011;31365;48.858;8.530;2022-09-03T14:34:59;1.80;;;1.35;;
45650;SDS011;31365;48.858;8.530;2022-09-03T14:41:05;1.00;;;0.90;;
45650;SDS011;31365;48.858;8.530;2022-09-03T14:44:07;0.98;;;0.98;;
45650;SDS011;31365;48.858;8.530;2022-09-03T14:46:58;1.25;;;1.15;;
45650;SDS011;31365;48.858;8.530;2022-09-03T14:49:45;0.80;;;0.80;;
45650;SDS011;31365;48.858;8.530;2022-09-03T14:52:48;0.95;;;0.90;;
45650;SDS011;31365;48.858;8.530;2022-09-03T14:55:49;1.10;;;1.08;;
45650;SDS011;31365;48.858;8.530;2022-09-03T14:58:40;0.98;;;0.70;;
45650;SDS011;31365;48.858;8.530;2022-09-03T15:01:32;1.38;;;0.90;;
45650;SDS011;31365;48.858;8.530;2022-09-03T15:07:21;0.70;;;0.70;;
45650;SDS011;31365;48.858;8.530;2022-09-03T15:10:01;0.75;;;0.75;;
45650;SDS011;31365;48.858;8.530;2022-09-03T15:12:43;0.80;;;0.80;;
45650;SDS011;31365;48.858;8.530;2022-09-03T15:15:16;0.80;;;0.80;;
45650;SDS011;31365;48.858;8.530;2022-09-03T15:17:53;0.80;;;0.80;;
45650;SDS011;31365;48.858;8.530;2022-09-03T15:20:35;1.83;;;1.55;;
45650;SDS011;31365;48.858;8.530;2022-09-03T15:23:24;3.15;;;1.05;;
45650;SDS011;31365;48.858;8.530;2022-09-03T15:26:16;0.80;;;0.80;;
45650;SDS011;31365;48.858;8.530;2022-09-03T15:32:05;1.20;;;1.10;;
45650;SDS011;31365;48.858;8.530;2022-09-03T15:34:49;1.10;;;1.00;;
45650;SDS011;31365;48.858;8.530;2022-09-03T15:37:33;1.40;;;1.00;;
45650;SDS011;31365;48.858;8.530;2022-09-03T15:40:19;0.60;;;0.60;;
45650;SDS011;31365;48.858;8.530;2022-09-03T15:42:57;0.90;;;0.90;;
45650;SDS011;31365;48.858;8.530;2022-09-03T15:45:34;1.75;;;1.00;;
45650;SDS011;31365;48.858;8.530;2022-09-03T15:48:10;0.80;;;0.80;;
45650;SDS011;31365;48.858;8.530;2022-09-03T15:50:54;0.77;;;0.77;;
45650;SDS011;31365;48.858;8.530;2022-09-03T15:53:38;0.93;;;0.80;;
45650;SDS011;31365;48.858;8.530;2022-09-03T15:56:19;1.27;;;1.00;;
45650;SDS011;31365;48.858;8.530;2022-09-03T15:58:57;1.05;;;0.73;;
45650;SDS011;31365;48.858;8.530;2022-09-03T16:01:33;0.98;;;0.98;;
45650;SDS011;31365;48.858;8.530;2022-09-03T16:04:16;1.95;;;0.90;;
45650;SDS011;31365;48.858;8.530;2022-09-03T16:07:00;0.95;;;0.88;;
45650;SDS011;31365;48.858;8.530;2022-09-03T16:09:45;2.30;;;1.10;;